Time;durP1;ratioP1;P1;durP2;ratioP2;P2;SDS_P1;SDS_P2;PMS_P1;PMS_P2;Temp;Humidity;BMP_temperature;BMP_pressure;BME280_temperature;BME280_humidity;BME280_pressure;Samples;Min_cycle;Max_cycle;Signal;HPM_P1;HPM_P2
2023/06/29 00:01:55;;;;;;;18.52;11.02;;;;;;;18.11;100.00;92769.66;5071528;28;20032;-76
2023/06/29 00:04:21;;;;;;;14.80;9.95;;;;;;;18.20;100.00;92770.34;5072549;28;20033;-76
2023/06/29 00:06:49;;;;;;;14.40;10.48;;;;;;;18.14;100.00;92770.88;5054980;28;20033;-76
2023/06/29 00:09:16;;;;;;;16.50;10.55;;;;;;;18.09;100.00;92769.97;5070789;28;20032;-76
2023/06/29 00:11:43;;;;;;;15.30;9.95;;;;;;;18.04;100.00;92770.19;5072478;28;20040;-76
2023/06/29 00:14:08;;;;;;;17.85;10.25;;;;;;;18.00;100.00;92777.22;5072515;28;20036;-76
2023/06/29 00:16:35;;;;;;;16.77;10.25;;;;;;;18.00;100.00;92769.28;5071123;28;20051;-78
2023/06/29 00:19:01;;;;;;;14.75;9.88;;;;;;;17.98;100.00;92762.75;5072592;28;20037;-78
2023/06/29 00:21:31;;;;;;;15.63;9.88;;;;;;;17.98;100.00;92758.22;5072498;28;20036;-78
2023/06/29 00:23:56;;;;;;;15.85;10.20;;;;;;;18.03;100.00;92765.97;5072408;28;20079;-78
2023/06/29 00:26:22;;;;;;;14.52;9.80;;;;;;;18.03;100.00;92765.97;5072546;28;20064;-78
2023/06/29 00:28:48;;;;;;;20.65;9.68;;;;;;;17.98;100.00;92760.88;5072126;28;20028;-78
2023/06/29 00:31:15;;;;;;;14.60;8.82;;;;;;;18.02;100.00;92759.13;5072648;28;20036;-78
2023/06/29 00:33:40;;;;;;;14.48;9.00;;;;;;;18.10;100.00;92757.50;5071347;28;20032;-78
2023/06/29 00:36:06;;;;;;;15.15;9.68;;;;;;;18.02;100.00;92756.47;5055029;28;20032;-78
2023/06/29 00:38:31;;;;;;;15.48;9.07;;;;;;;17.91;100.00;92762.50;5072631;28;20054;-78
2023/06/29 00:40:57;;;;;;;17.48;10.70;;;;;;;17.93;100.00;92761.09;5072318;28;20360;-78
2023/06/29 00:43:23;;;;;;;13.90;9.60;;;;;;;17.92;100.00;92759.50;5069775;28;20049;-78
2023/06/29 00:45:49;;;;;;;15.43;9.07;;;;;;;17.88;100.00;92756.00;5070729;28;20090;-78
2023/06/29 00:48:15;;;;;;;15.00;9.43;;;;;;;17.81;100.00;92758.34;5071015;28;20032;-78
2023/06/29 00:50:41;;;;;;;17.90;9.70;;;;;;;17.92;100.00;92753.44;5054054;28;20102;-78
2023/06/29 00:53:07;;;;;;;18.15;8.95;;;;;;;17.88;100.00;92758.63;5071875;28;20055;-78
2023/06/29 00:55:33;;;;;;;16.70;9.32;;;;;;;17.87;100.00;92757.06;5070234;28;20044;-79
2023/06/29 00:57:58;;;;;;;13.00;8.93;;;;;;;17.91;100.00;92757.22;5071805;28;20418;-78
2023/06/29 01:00:24;;;;;;;19.75;8.90;;;;;;;17.83;100.00;92761.47;5070437;28;20028;-78
2023/06/29 01:02:50;;;;;;;14.93;9.25;;;;;;;17.73;100.00;92765.25;5070628;28;20056;-78
2023/06/29 01:05:16;;;;;;;13.20;8.73;;;;;;;17.72;100.00;92760.28;5071974;28;20071;-78
2023/06/29 01:08:17;;;;;;;13.05;8.73;;;;;;;17.74;100.00;92763.38;5069755;28;20036;-78
2023/06/29 01:10:45;;;;;;;15.50;9.10;;;;;;;17.71;100.00;92772.75;5070123;28;20083;-78
2023/06/29 01:13:13;;;;;;;14.90;8.75;;;;;;;17.73;100.00;92767.13;5072047;28;20385;-78
2023/06/29 01:15:40;;;;;;;19.83;8.93;;;;;;;17.72;100.00;92761.06;5070093;28;20051;-78
2023/06/29 01:18:07;;;;;;;19.25;8.55;;;;;;;17.74;100.00;92766.03;5070613;28;20505;-78
2023/06/29 01:20:33;;;;;;;22.52;8.15;;;;;;;17.73;100.00;92757.31;5071590;28;20108;-78
2023/06/29 01:23:10;;;;;;;15.45;7.82;;;;;;;17.72;100.00;92747.84;5071535;28;20178;-78
2023/06/29 01:25:37;;;;;;;13.25;8.52;;;;;;;17.73;100.00;92756.53;5070040;28;20039;-78
2023/06/29 01:28:09;;;;;;;17.10;8.25;;;;;;;17.74;100.00;92763.38;5070138;28;20390;-78
2023/06/29 01:30:39;;;;;;;14.48;8.35;;;;;;;17.74;100.00;92755.44;5071362;28;20075;-78
2023/06/29 01:33:06;;;;;;;13.73;7.90;;;;;;;17.76;100.00;92750.59;5071449;28;20032;-77
2023/06/29 01:35:34;;;;;;;12.93;8.00;;;;;;;17.78;100.00;92748.41;5071654;28;20051;-77
2023/06/29 01:38:07;;;;;;;14.02;7.93;;;;;;;17.77;100.00;92749.50;5070195;28;20036;-77
2023/06/29 01:40:36;;;;;;;14.25;8.15;;;;;;;17.77;100.00;92752.16;5069785;28;20036;-77
2023/06/29 01:43:02;;;;;;;14.68;7.80;;;;;;;17.75;100.00;92762.28;5071276;28;20060;-77
2023/06/29 01:45:28;;;;;;;16.75;7.88;;;;;;;17.75;100.00;92759.66;5070321;28;20294;-77
2023/06/29 01:47:55;;;;;;;11.20;7.25;;;;;;;17.73;100.00;92759.97;5069944;28;20124;-77
2023/06/29 01:50:21;;;;;;;12.45;6.85;;;;;;;17.75;100.00;92755.13;5071348;28;20492;-77
2023/06/29 01:52:46;;;;;;;10.90;6.18;;;;;;;17.81;100.00;92753.03;5069972;28;20032;-77
2023/06/29 01:55:13;;;;;;;9.73;6.50;;;;;;;17.78;100.00;92766.94;5069561;28;20032;-77
2023/06/29 01:57:39;;;;;;;11.45;6.53;;;;;;;17.71;100.00;92761.38;5071337;28;20533;-77
2023/06/29 02:00:06;;;;;;;11.05;5.90;;;;;;;17.71;100.00;92764.03;5069825;28;20047;-78
2023/06/29 02:02:39;;;;;;;14.20;6.32;;;;;;;17.66;100.00;92763.13;5070963;28;20039;-77
2023/06/29 02:05:05;;;;;;;10.40;6.38;;;;;;;17.64;100.00;92767.97;5070878;28;20033;-77
2023/06/29 02:07:31;;;;;;;9.70;5.78;;;;;;;17.77;100.00;92757.47;5069562;28;20121;-77
2023/06/29 02:09:56;;;;;;;10.00;5.90;;;;;;;17.65;100.00;92751.00;5070725;28;20102;-77
2023/06/29 02:12:23;;;;;;;14.75;6.28;;;;;;;17.61;100.00;92757.25;5053144;28;20033;-77
2023/06/29 02:14:49;;;;;;;12.65;6.00;;;;;;;17.58;100.00;92756.00;5070781;28;20047;-77
2023/06/29 02:17:15;;;;;;;10.70;6.20;;;;;;;17.54;100.00;92757.78;5069700;28;20425;-77
2023/06/29 02:19:41;;;;;;;9.23;5.55;;;;;;;17.54;100.00;92760.44;5069907;28;20107;-77
2023/06/29 02:22:07;;;;;;;13.32;6.55;;;;;;;17.54;100.00;92757.78;5069786;28;20040;-77
2023/06/29 02:24:32;;;;;;;12.60;6.45;;;;;;;17.53;100.00;92753.56;5070486;28;20087;-77
2023/06/29 02:27:01;;;;;;;16.63;6.90;;;;;;;17.51;100.00;92753.09;5069780;28;20028;-77
2023/06/29 02:29:26;;;;;;;12.27;7.10;;;;;;;17.53;100.00;92753.56;5069655;28;20094;-76
2023/06/29 02:31:52;;;;;;;14.95;7.88;;;;;;;17.55;100.00;92756.66;5069652;28;20029;-77
2023/06/29 02:34:19;;;;;;;11.15;6.88;;;;;;;17.54;100.00;92749.84;5069537;28;20040;-77
2023/06/29 02:36:45;;;;;;;10.85;6.85;;;;;;;17.52;100.00;92751.22;5069300;28;20033;-77
2023/06/29 02:39:13;;;;;;;14.77;6.35;;;;;;;17.48;100.00;92748.47;5069733;28;20514;-77
2023/06/29 02:41:39;;;;;;;11.38;6.22;;;;;;;17.45;100.00;92749.09;5069337;28;20114;-77
2023/06/29 02:44:04;;;;;;;13.68;5.78;;;;;;;17.45;100.00;92751.75;5070650;28;20056;-77
2023/06/29 02:46:30;;;;;;;8.95;5.53;;;;;;;17.40;100.00;92749.28;5069400;28;20072;-77
2023/06/29 02:48:56;;;;;;;11.55;5.78;;;;;;;17.40;100.00;92746.66;5069706;28;20040;-77
2023/06/29 02:51:22;;;;;;;10.82;6.28;;;;;;;17.41;100.00;92745.56;5052784;28;20025;-77
2023/06/29 02:53:49;;;;;;;8.38;5.72;;;;;;;17.40;100.00;92746.66;5069827;28;20042;-77
2023/06/29 02:56:15;;;;;;;11.93;6.35;;;;;;;17.41;100.00;92751.63;5069804;28;20457;-77
2023/06/29 02:58:40;;;;;;;13.65;6.78;;;;;;;17.41;100.00;92756.16;5069266;28;20383;-77
2023/06/29 03:01:10;;;;;;;12.70;6.43;;;;;;;17.40;100.00;92759.88;5053228;28;20032;-77
2023/06/29 03:03:35;;;;;;;11.10;6.68;;;;;;;17.41;100.00;92761.44;5070679;28;20082;-77
2023/06/29 03:06:01;;;;;;;12.98;7.15;;;;;;;17.41;100.00;92761.44;5069469;28;20522;-77
2023/06/29 03:08:28;;;;;;;13.68;6.82;;;;;;;17.46;100.00;92761.25;5055581;28;20112;-77
2023/06/29 03:10:57;;;;;;;11.80;6.18;;;;;;;17.47;100.00;92768.06;5073796;28;20040;-76
2023/06/29 03:13:22;;;;;;;13.52;7.28;;;;;;;17.43;100.00;92775.13;5074217;28;20045;-77
2023/06/29 03:15:48;;;;;;;14.32;6.68;;;;;;;17.34;100.00;92771.75;5073854;28;20482;-76
2023/06/29 03:18:13;;;;;;;14.18;6.70;;;;;;;17.31;100.00;92769.75;5073742;28;20041;-77
2023/06/29 03:20:39;;;;;;;12.65;6.78;;;;;;;17.28;100.00;92764.00;5073701;28;20034;-77
2023/06/29 03:23:05;;;;;;;12.80;7.00;;;;;;;17.27;100.00;92772.28;5073451;28;20162;-77
2023/06/29 03:25:30;;;;;;;11.40;6.60;;;;;;;17.28;100.00;92765.88;5073518;28;20086;-77
2023/06/29 03:27:56;;;;;;;11.32;6.85;;;;;;;17.28;100.00;92779.09;5072193;28;20395;-76
2023/06/29 03:30:22;;;;;;;14.43;6.05;;;;;;;17.29;100.00;92764.75;5073398;28;20039;-76
2023/06/29 03:32:47;;;;;;;12.32;6.50;;;;;;;17.27;100.00;92769.63;5055535;28;20131;-77
2023/06/29 03:35:13;;;;;;;10.13;6.20;;;;;;;17.27;100.00;92770.41;5073798;28;20047;-77
2023/06/29 03:37:38;;;;;;;10.10;6.22;;;;;;;17.27;100.00;92773.03;5072408;28;20021;-77
2023/06/29 03:40:04;;;;;;;9.50;5.85;;;;;;;17.29;100.00;92764.75;5073529;28;20041;-77
2023/06/29 03:42:30;;;;;;;14.80;6.10;;;;;;;17.30;100.00;92765.56;5076358;28;20152;-77
2023/06/29 03:44:56;;;;;;;14.25;6.50;;;;;;;17.30;100.00;92768.97;5079584;28;20044;-77
2023/06/29 03:47:21;;;;;;;13.35;6.18;;;;;;;17.29;100.00;92764.75;5078353;28;20082;-77
2023/06/29 03:49:47;;;;;;;10.57;5.60;;;;;;;17.28;100.00;92773.81;5080430;28;20315;-77
2023/06/29 03:52:12;;;;;;;9.05;5.70;;;;;;;17.27;100.00;92773.03;5080157;28;20036;-77
2023/06/29 03:54:39;;;;;;;9.77;5.70;;;;;;;17.26;100.00;92766.19;5078588;28;20486;-78
2023/06/29 03:57:05;;;;;;;11.05;5.68;;;;;;;17.29;100.00;92775.34;5080030;28;20048;-78
2023/06/29 03:59:32;;;;;;;9.18;5.57;;;;;;;17.26;100.00;92776.75;5079264;28;20036;-77
2023/06/29 04:01:57;;;;;;;8.55;5.45;;;;;;;17.24;100.00;92778.94;5078955;28;20050;-77
2023/06/29 04:04:23;;;;;;;10.82;5.72;;;;;;;17.24;100.00;92778.19;5079283;28;20442;-77
2023/06/29 04:06:49;;;;;;;10.90;5.53;;;;;;;17.24;100.00;92783.47;5078291;28;20028;-78
2023/06/29 04:09:14;;;;;;;10.07;5.53;;;;;;;17.23;100.00;92790.66;5078348;28;20094;-77
2023/06/29 04:11:40;;;;;;;11.52;5.55;;;;;;;17.24;100.00;92788.75;5078882;28;20040;-77
2023/06/29 04:14:05;;;;;;;9.00;5.53;;;;;;;17.25;100.00;92791.09;5078533;28;20025;-78
2023/06/29 04:16:31;;;;;;;11.48;5.97;;;;;;;17.25;100.00;92787.69;5078851;28;20036;-77
2023/06/29 04:18:57;;;;;;;9.48;5.80;;;;;;;17.22;100.00;92786.44;5082102;28;20123;-77
2023/06/29 04:21:23;;;;;;;10.13;5.93;;;;;;;17.25;100.00;92793.75;5079172;28;20036;-77
2023/06/29 04:23:48;;;;;;;12.70;5.53;;;;;;;17.22;100.00;92794.38;5078159;28;20041;-77
2023/06/29 04:26:15;;;;;;;9.57;5.30;;;;;;;17.25;100.00;92796.38;5077228;28;20051;-77
2023/06/29 04:28:44;;;;;;;10.25;5.68;;;;;;;17.23;100.00;92798.56;5078190;28;20036;-77
2023/06/29 04:31:10;;;;;;;11.52;5.95;;;;;;;17.22;100.00;92798.88;5078234;28;20032;-77
2023/06/29 04:33:35;;;;;;;10.30;5.63;;;;;;;17.24;100.00;92800.13;5078820;28;20032;-77
2023/06/29 04:36:01;;;;;;;10.68;6.15;;;;;;;17.25;100.00;92803.56;5078215;28;20028;-77
2023/06/29 04:38:27;;;;;;;9.02;5.78;;;;;;;17.24;100.00;92805.41;5077976;28;20035;-77
2023/06/29 04:41:03;;;;;;;13.20;5.68;;;;;;;17.25;100.00;92806.22;5076478;28;20059;-77
2023/06/29 04:43:32;;;;;;;10.85;5.80;;;;;;;17.27;100.00;92812.72;5077317;28;20045;-78
2023/06/29 04:46:01;;;;;;;12.52;6.07;;;;;;;17.28;100.00;92813.50;5078400;28;20039;-77
2023/06/29 04:48:32;;;;;;;12.45;5.85;;;;;;;17.27;100.00;92815.38;5077582;28;20414;-77
2023/06/29 04:51:02;;;;;;;10.63;5.70;;;;;;;17.25;100.00;92812.25;5076487;28;20044;-77
2023/06/29 04:53:28;;;;;;;10.63;5.85;;;;;;;17.27;100.00;92819.91;5078023;28;20032;-77
2023/06/29 04:55:55;;;;;;;10.48;6.00;;;;;;;17.31;100.00;92814.72;5078409;28;20082;-77
2023/06/29 04:58:20;;;;;;;10.55;6.10;;;;;;;17.31;100.00;92814.72;5078091;28;20051;-77
2023/06/29 05:00:46;;;;;;;12.80;6.80;;;;;;;17.31;100.00;92820.00;5076016;28;20032;-78
2023/06/29 05:03:11;;;;;;;10.02;5.80;;;;;;;17.30;100.00;92813.94;5078083;28;20027;-78
2023/06/29 05:05:37;;;;;;;11.80;6.13;;;;;;;17.28;100.00;92822.19;5078645;28;20036;-78
2023/06/29 05:08:02;;;;;;;15.57;6.00;;;;;;;17.25;100.00;92812.25;5078178;28;20068;-78
2023/06/29 05:10:28;;;;;;;10.27;5.78;;;;;;;17.26;100.00;92819.09;5076713;28;20025;-78
2023/06/29 05:12:53;;;;;;;11.10;5.65;;;;;;;17.27;100.00;92815.38;5076411;28;20098;-77
2023/06/29 05:15:19;;;;;;;11.65;5.93;;;;;;;17.28;100.00;92816.13;5077908;28;20040;-78
2023/06/29 05:17:45;;;;;;;14.18;6.53;;;;;;;17.29;100.00;92809.75;5079543;28;20491;-78
2023/06/29 05:20:11;;;;;;;9.25;5.68;;;;;;;17.31;100.00;92818.13;5076983;28;20115;-78
2023/06/29 05:22:36;;;;;;;10.63;5.95;;;;;;;17.32;100.00;92814.41;5077699;28;20045;-78
2023/06/29 05:25:02;;;;;;;13.82;6.88;;;;;;;17.35;100.00;92820.94;5077096;28;20059;-77
2023/06/29 05:27:28;;;;;;;10.32;6.05;;;;;;;17.36;100.00;92811.88;5078322;28;20090;-77
2023/06/29 05:29:53;;;;;;;9.80;5.57;;;;;;;17.37;100.00;92818.75;5077597;28;20028;-78
2023/06/29 05:32:19;;;;;;;10.65;5.80;;;;;;;17.37;100.00;92819.50;5077710;28;20498;-77
2023/06/29 05:34:44;;;;;;;10.98;5.47;;;;;;;17.38;100.00;92821.06;5077003;28;20062;-77
2023/06/29 05:37:10;;;;;;;9.90;5.45;;;;;;;17.39;100.00;92817.31;5076768;28;20036;-77
2023/06/29 05:39:35;;;;;;;11.35;5.90;;;;;;;17.37;100.00;92818.75;5076739;28;20483;-78
2023/06/29 05:42:01;;;;;;;11.20;5.60;;;;;;;17.38;100.00;92825.56;5073789;28;20048;-78
2023/06/29 05:44:26;;;;;;;13.00;4.93;;;;;;;17.37;100.00;92830.09;5076395;28;20123;-77
2023/06/29 05:46:52;;;;;;;10.07;5.22;;;;;;;17.35;100.00;92836.81;5075689;28;20037;-77
2023/06/29 05:49:18;;;;;;;8.63;5.10;;;;;;;17.35;100.00;92837.56;5075510;28;20068;-77
2023/06/29 05:51:43;;;;;;;10.70;4.88;;;;;;;17.36;100.00;92844.44;5076305;28;20037;-77
2023/06/29 05:54:09;;;;;;;10.13;4.75;;;;;;;17.35;100.00;92842.88;5076510;28;20450;-77
2023/06/29 05:56:34;;;;;;;9.00;5.47;;;;;;;17.38;100.00;92838.81;5075236;28;20041;-77
2023/06/29 05:59:00;;;;;;;8.73;5.30;;;;;;;17.38;100.00;92842.25;5075585;28;20072;-78
2023/06/29 06:01:25;;;;;;;9.48;5.15;;;;;;;17.37;100.00;92845.19;5077070;28;20166;-78
2023/06/29 06:03:51;;;;;;;8.02;4.70;;;;;;;17.38;100.00;92841.44;5078316;28;20421;-78
2023/06/29 06:06:17;;;;;;;7.72;4.53;;;;;;;17.39;100.00;92843.00;5078303;28;20032;-78
2023/06/29 06:08:42;;;;;;;8.07;4.60;;;;;;;17.39;100.00;92849.06;5077645;28;20039;-78
2023/06/29 06:11:08;;;;;;;7.40;4.10;;;;;;;17.38;100.00;92852.84;5078148;28;20028;-77
2023/06/29 06:13:33;;;;;;;7.47;4.75;;;;;;;17.37;100.00;92853.13;5077093;28;20044;-77
2023/06/29 06:15:59;;;;;;;8.32;3.92;;;;;;;17.35;100.00;92853.44;5074928;28;20394;-77
2023/06/29 06:18:25;;;;;;;9.10;4.00;;;;;;;17.36;100.00;92855.03;5074293;28;20028;-77
2023/06/29 06:20:51;;;;;;;7.47;4.18;;;;;;;17.39;100.00;92853.59;5075349;28;20036;-78
2023/06/29 06:23:17;;;;;;;8.50;3.95;;;;;;;17.39;100.00;92853.59;5074577;28;20111;-78
2023/06/29 06:25:42;;;;;;;8.18;3.90;;;;;;;17.39;100.00;92854.38;5072355;28;20032;-77
2023/06/29 06:28:08;;;;;;;7.15;4.10;;;;;;;17.38;100.00;92857.31;5073796;28;20119;-77
2023/06/29 06:30:33;;;;;;;7.55;3.30;;;;;;;17.38;100.00;92852.84;5073098;28;20470;-77
2023/06/29 06:33:01;;;;;;;7.72;3.67;;;;;;;17.39;100.00;92858.91;5071578;28;20497;-77
2023/06/29 06:35:28;;;;;;;6.40;4.00;;;;;;;17.39;100.00;92849.06;5073187;28;20040;-77
2023/06/29 06:37:54;;;;;;;6.15;3.53;;;;;;;17.42;100.00;92859.00;5075454;28;20036;-77
2023/06/29 06:40:20;;;;;;;8.00;3.58;;;;;;;17.44;99.99;92856.06;5073371;28;20044;-77
2023/06/29 06:42:45;;;;;;;9.35;3.80;;;;;;;17.46;99.48;92853.88;5074971;28;20461;-77
2023/06/29 06:45:11;;;;;;;7.35;3.25;;;;;;;17.47;99.91;92856.22;5075923;28;20062;-77
2023/06/29 06:47:37;;;;;;;6.38;3.30;;;;;;;17.50;99.59;92854.03;5076975;28;20498;-77
2023/06/29 06:50:03;;;;;;;6.60;3.35;;;;;;;17.50;100.00;92857.44;5075223;28;20116;-77
2023/06/29 06:52:29;;;;;;;6.78;3.42;;;;;;;17.50;100.00;92854.78;5075423;28;20051;-77
2023/06/29 06:54:57;;;;;;;7.70;3.30;;;;;;;17.53;100.00;92853.38;5076550;28;20024;-78
2023/06/29 06:57:23;;;;;;;6.22;3.40;;;;;;;17.55;100.00;92851.19;5074974;28;20040;-77
2023/06/29 06:59:49;;;;;;;8.48;3.50;;;;;;;17.56;100.00;92853.53;5074470;28;20037;-77
2023/06/29 07:02:14;;;;;;;5.85;3.28;;;;;;;17.55;100.00;92846.66;5074020;28;20036;-77
2023/06/29 07:04:40;;;;;;;5.05;3.10;;;;;;;17.74;100.00;92850.75;5073778;28;20020;-76
2023/06/29 07:07:07;;;;;;;6.03;3.22;;;;;;;17.64;100.00;92850.03;5073918;28;20375;-77
2023/06/29 07:09:33;;;;;;;11.52;4.25;;;;;;;17.64;100.00;92855.31;5073345;28;20036;-77
2023/06/29 07:11:59;;;;;;;6.85;3.20;;;;;;;17.68;100.00;92863.41;5073703;28;20031;-77
2023/06/29 07:14:25;;;;;;;7.05;3.85;;;;;;;17.67;100.00;92854.69;5073784;28;20430;-77
2023/06/29 07:16:50;;;;;;;6.18;3.70;;;;;;;17.63;100.00;92858.28;5074342;28;20033;-77
2023/06/29 07:19:16;;;;;;;6.20;3.90;;;;;;;17.60;100.00;92859.69;5073600;28;20482;-77
2023/06/29 07:21:42;;;;;;;8.05;4.00;;;;;;;17.66;100.00;92861.06;5073827;28;20490;-77
2023/06/29 07:24:08;;;;;;;6.75;3.40;;;;;;;17.74;100.00;92853.41;5073550;28;20031;-77
2023/06/29 07:26:35;;;;;;;7.15;3.80;;;;;;;17.82;100.00;92855.25;5073382;28;20036;-77
2023/06/29 07:29:01;;;;;;;7.40;3.88;;;;;;;17.88;100.00;92856.63;5073481;28;20093;-77
2023/06/29 07:31:28;;;;;;;11.55;5.07;;;;;;;17.93;100.00;92859.06;5073920;28;20020;-77
2023/06/29 07:33:54;;;;;;;6.78;3.95;;;;;;;18.00;100.00;92867.28;5074020;28;20036;-77
2023/06/29 07:36:21;;;;;;;12.10;3.22;;;;;;;18.06;100.00;92865.22;5073746;28;20209;-77
2023/06/29 07:38:47;;;;;;;7.53;3.10;;;;;;;18.08;98.77;92863.00;5073595;28;20043;-77
2023/06/29 07:41:14;;;;;;;6.13;3.53;;;;;;;18.10;98.40;92866.91;5073552;28;20044;-77
2023/06/29 07:43:40;;;;;;;7.15;3.40;;;;;;;18.18;99.69;92864.50;5073209;28;20068;-77
2023/06/29 07:46:06;;;;;;;9.18;3.65;;;;;;;18.23;95.42;92865.06;5072863;28;20127;-77
2023/06/29 07:48:32;;;;;;;7.32;4.53;;;;;;;18.39;100.00;92870.53;5073077;28;20128;-77
2023/06/29 07:50:57;;;;;;;11.93;6.20;;;;;;;18.21;100.00;92867.25;5071906;28;20039;-77
2023/06/29 07:53:24;;;;;;;9.02;5.82;;;;;;;18.04;100.00;92867.41;5071545;28;20047;-77
2023/06/29 07:55:49;;;;;;;11.55;6.40;;;;;;;18.04;100.00;92870.84;5073124;28;20024;-77
2023/06/29 07:58:16;;;;;;;8.43;5.10;;;;;;;18.04;100.00;92873.47;5073115;28;20028;-77
2023/06/29 08:00:41;;;;;;;8.85;4.22;;;;;;;18.14;100.00;92872.31;5073292;28;20028;-77
2023/06/29 08:03:08;;;;;;;9.32;4.30;;;;;;;18.18;100.00;92872.44;5072861;28;20383;-77
2023/06/29 08:05:33;;;;;;;9.95;5.47;;;;;;;18.23;100.00;92866.94;5073010;28;20036;-77
2023/06/29 08:07:59;;;;;;;8.18;3.88;;;;;;;18.29;100.00;92860.34;5072873;28;20051;-77
2023/06/29 08:10:25;;;;;;;6.63;4.07;;;;;;;18.33;100.00;92869.22;5073155;28;20032;-77
2023/06/29 08:12:51;;;;;;;10.23;4.65;;;;;;;18.38;100.00;92870.88;5073228;28;20448;-77
2023/06/29 08:15:16;;;;;;;7.45;4.25;;;;;;;18.50;100.00;92868.28;5075684;28;20028;-78
2023/06/29 08:17:42;;;;;;;8.02;4.10;;;;;;;18.52;100.00;92872.16;5074186;28;20037;-78
2023/06/29 08:20:12;;;;;;;7.13;4.32;;;;;;;18.61;100.00;92874.72;5076304;28;20132;-78
2023/06/29 08:22:45;;;;;;;7.68;4.15;;;;;;;18.62;100.00;92878.16;5075649;28;20032;-78
2023/06/29 08:25:11;;;;;;;7.05;4.22;;;;;;;18.84;100.00;92877.81;5075219;28;20028;-78
2023/06/29 08:27:36;;;;;;;7.95;4.28;;;;;;;18.81;100.00;92872.41;5075995;28;20508;-78
2023/06/29 08:30:02;;;;;;;12.77;4.38;;;;;;;19.00;100.00;92874.53;5075916;28;20037;-78
2023/06/29 08:32:28;;;;;;;7.65;4.57;;;;;;;19.09;100.00;92880.50;5075086;28;20074;-78
2023/06/29 08:34:54;;;;;;;10.10;5.00;;;;;;;19.17;100.00;92878.88;5075513;28;20501;-78
2023/06/29 08:37:20;;;;;;;9.98;5.97;;;;;;;19.03;100.00;92868.59;5074709;28;20131;-78
2023/06/29 08:39:45;;;;;;;10.50;6.40;;;;;;;19.00;100.00;92870.00;5077496;28;20040;-78
2023/06/29 08:42:12;;;;;;;16.08;6.10;;;;;;;19.00;100.00;92874.53;5076671;28;20113;-78
2023/06/29 08:44:38;;;;;;;10.38;5.32;;;;;;;19.04;100.00;92862.16;5075655;28;20097;-78
2023/06/29 08:47:05;;;;;;;12.70;6.40;;;;;;;19.17;100.00;92873.56;5060061;28;20418;-78
2023/06/29 08:49:37;;;;;;;15.98;6.50;;;;;;;19.12;100.00;92859.41;5076853;28;20135;-78
2023/06/29 08:52:04;;;;;;;11.27;4.70;;;;;;;19.31;100.00;92864.19;5075789;28;20437;-78
2023/06/29 08:54:31;;;;;;;8.18;5.03;;;;;;;19.51;100.00;92861.75;5073029;28;20555;-78
2023/06/29 08:57:01;;;;;;;9.18;5.63;;;;;;;19.60;100.00;92865.06;5074371;28;20043;-78
2023/06/29 08:59:27;;;;;;;9.52;5.30;;;;;;;19.66;100.00;92862.97;5078375;28;20032;-78
2023/06/29 09:01:54;;;;;;;10.60;5.82;;;;;;;19.24;100.00;92865.84;5078480;28;20048;-78
2023/06/29 09:04:20;;;;;;;12.57;6.10;;;;;;;19.49;100.00;92859.44;5075175;28;20098;-78
2023/06/29 09:06:46;;;;;;;11.95;6.32;;;;;;;19.60;100.00;92859.75;5076660;28;20051;-78
2023/06/29 09:09:12;;;;;;;11.85;6.05;;;;;;;19.54;100.00;92866.41;5075137;28;20036;-78
2023/06/29 09:11:38;;;;;;;11.25;5.82;;;;;;;19.51;100.00;92861.75;5076410;28;20486;-78
2023/06/29 09:14:07;;;;;;;15.35;6.88;;;;;;;19.38;100.00;92860.97;5076409;28;20029;-78
2023/06/29 09:16:34;;;;;;;12.60;5.65;;;;;;;19.44;100.00;92864.19;5075824;28;20512;-78
2023/06/29 09:19:03;;;;;;;11.88;6.30;;;;;;;19.40;100.00;92871.28;5075749;28;20030;-78
2023/06/29 09:21:29;;;;;;;8.63;5.28;;;;;;;19.49;100.00;92864.75;5075228;28;20068;-78
2023/06/29 09:23:55;;;;;;;8.75;4.82;;;;;;;19.59;93.22;92870.72;5074928;28;20044;-78
2023/06/29 09:26:27;;;;;;;11.25;5.30;;;;;;;19.57;98.34;92868.41;5074827;28;20118;-78
2023/06/29 09:28:57;;;;;;;6.80;3.95;;;;;;;19.81;91.11;92870.28;5073926;28;20040;-78
2023/06/29 09:31:25;;;;;;;9.10;4.10;;;;;;;20.06;90.02;92871.03;5075062;28;20068;-78
2023/06/29 09:33:51;;;;;;;8.70;5.43;;;;;;;20.03;94.03;92870.91;5076279;28;20057;-78
2023/06/29 09:36:16;;;;;;;10.52;5.85;;;;;;;20.02;99.67;92875.47;5076970;28;20123;-78
2023/06/29 09:38:47;;;;;;;13.57;6.07;;;;;;;20.10;100.00;92869.22;5076851;28;20032;-78
2023/06/29 09:41:13;;;;;;;11.50;5.70;;;;;;;20.01;98.03;92873.13;5075642;28;20052;-78
2023/06/29 09:43:40;;;;;;;7.55;4.55;;;;;;;20.02;94.06;92870.16;5074923;28;20100;-78
2023/06/29 09:46:09;;;;;;;8.18;5.13;;;;;;;20.15;96.42;92871.69;5075856;28;20056;-78
2023/06/29 09:48:46;;;;;;;12.35;5.78;;;;;;;20.25;96.57;92872.31;5075622;28;20422;-78
2023/06/29 09:51:21;;;;;;;12.65;5.85;;;;;;;20.36;94.08;92876.06;5075864;28;20036;-78
2023/06/29 09:53:47;;;;;;;7.15;4.00;;;;;;;20.23;86.29;92875.31;5075797;28;20395;-78
2023/06/29 09:56:13;;;;;;;10.45;5.35;;;;;;;20.22;93.57;92878.28;5074446;28;20037;-78
2023/06/29 09:58:39;;;;;;;8.57;3.67;;;;;;;20.21;81.63;92872.22;5073638;28;20059;-78
2023/06/29 10:01:05;;;;;;;9.13;3.40;;;;;;;20.16;81.45;92873.22;5074361;28;20025;-77
2023/06/29 10:03:33;;;;;;;9.15;3.45;;;;;;;20.12;82.77;92874.22;5074027;28;20540;-77
2023/06/29 10:06:11;;;;;;;7.63;3.63;;;;;;;20.18;84.26;92875.53;5074696;28;20048;-77
2023/06/29 10:08:40;;;;;;;8.18;3.08;;;;;;;20.25;79.12;92872.31;5074882;28;20060;-77
2023/06/29 10:11:07;;;;;;;7.53;3.45;;;;;;;20.21;83.13;92876.75;5078578;28;20024;-87
2023/06/29 10:13:38;;;;;;;6.13;3.20;;;;;;;20.26;81.80;92874.63;5077146;28;20059;-78
2023/06/29 10:16:08;;;;;;;7.97;3.57;;;;;;;20.30;80.15;92878.16;5077262;28;20177;-78
2023/06/29 10:18:38;;;;;;;5.05;3.10;;;;;;;20.38;80.57;92882.56;5080752;28;20727;-78
2023/06/29 10:21:04;;;;;;;7.55;3.35;;;;;;;20.27;80.17;92880.72;5081533;28;20031;-78
2023/06/29 10:23:30;;;;;;;6.22;3.47;;;;;;;20.38;81.88;92876.50;5079036;28;20490;-78
2023/06/29 10:25:57;;;;;;;5.40;3.15;;;;;;;20.35;81.32;92877.16;5078241;28;20040;-77
2023/06/29 10:28:23;;;;;;;6.35;3.10;;;;;;;20.28;81.43;92877.72;5078451;28;20028;-77
2023/06/29 10:30:50;;;;;;;6.28;3.22;;;;;;;20.31;78.56;92881.59;5077072;28;20090;-78
2023/06/29 10:33:23;;;;;;;8.88;3.63;;;;;;;20.29;80.58;92873.97;5081873;28;20070;-77
2023/06/29 10:35:57;;;;;;;5.07;2.95;;;;;;;20.44;75.60;92879.66;5079827;28;20408;-78
2023/06/29 10:38:30;;;;;;;5.85;3.25;;;;;;;20.52;77.90;92876.88;5077984;28;20032;-78
2023/06/29 10:40:55;;;;;;;6.28;3.17;;;;;;;20.76;73.09;92876.03;5080052;28;20027;-77
2023/06/29 10:43:21;;;;;;;5.00;2.70;;;;;;;21.11;68.44;92875.41;5078989;28;20044;-78
2023/06/29 10:45:46;;;;;;;7.50;2.95;;;;;;;21.10;73.16;92870.44;5078664;28;20052;-77
2023/06/29 10:48:16;;;;;;;5.78;2.75;;;;;;;21.09;74.88;92871.53;5078699;28;20068;-78
2023/06/29 10:50:44;;;;;;;6.78;3.20;;;;;;;21.36;75.34;92872.56;5078809;28;20115;-78
2023/06/29 10:53:12;;;;;;;6.18;3.15;;;;;;;21.51;67.60;92876.38;5079496;28;20576;-78
2023/06/29 10:55:51;;;;;;;5.80;2.95;;;;;;;21.47;66.55;92867.53;5079196;28;20033;-78
2023/06/29 10:58:31;;;;;;;8.40;3.00;;;;;;;21.12;67.65;92865.50;5078798;28;20521;-78
2023/06/29 11:00:57;;;;;;;6.85;3.22;;;;;;;21.31;68.43;92865.63;5079265;28;20033;-77
2023/06/29 11:03:24;;;;;;;5.35;2.83;;;;;;;21.31;66.29;92865.63;5079233;28;20035;-77
2023/06/29 11:05:52;;;;;;;6.88;2.70;;;;;;;21.42;67.00;92852.59;5078419;28;20076;-78
2023/06/29 11:08:20;;;;;;;4.45;2.53;;;;;;;21.72;64.56;92854.78;5078361;28;20029;-77
2023/06/29 11:10:46;;;;;;;6.20;3.00;;;;;;;21.75;65.22;92851.44;5078665;28;20029;-77
2023/06/29 11:13:12;;;;;;;4.88;3.10;;;;;;;21.78;64.35;92846.19;5078769;28;20544;-78
2023/06/29 11:15:38;;;;;;;5.60;3.25;;;;;;;21.43;65.76;92840.81;5077374;28;20363;-77
2023/06/29 11:18:08;;;;;;;5.35;3.00;;;;;;;21.70;68.00;92847.13;5077180;28;20028;-78
2023/06/29 11:20:37;;;;;;;6.65;3.53;;;;;;;21.99;67.11;92845.09;5078107;28;20121;-78